Time;durP1;ratioP1;P1;durP2;ratioP2;P2;SDS_P1;SDS_P2;PMS_P1;PMS_P2;Temp;Humidity;BMP_temperature;BMP_pressure;BME280_temperature;BME280_humidity;BME280_pressure;Samples;Min_cycle;Max_cycle;Signal;HPM_P1;HPM_P2
2022/10/27 00:00:54;;;;;;;;;;;;;;;6.33;79.22;100380.09;5095205;28;2136;-78
2022/10/27 00:03:20;;;;;;;;;;;;;;;6.33;79.08;100382.78;5097494;28;1632;-78
2022/10/27 00:05:46;;;;;;;;;;;;;;;6.33;79.10;100380.09;5080559;28;4791;-78
2022/10/27 00:08:12;;;;;;;;;;;;;;;6.34;79.13;100384.41;5094550;28;4956;-78
2022/10/27 00:10:41;;;;;;;;;;;;;;;6.33;78.98;100391.63;5080531;28;4134;-78
2022/10/27 00:13:07;;;;;;;;;;;;;;;6.35;79.09;100389.59;5094632;28;2160;-78
2022/10/27 00:15:33;;;;;;;;;;;;;;;6.34;79.12;100390.59;5077122;28;2186;-80
2022/10/27 00:18:00;;;;;;;;;;;;;;;6.34;79.09;100384.41;5100567;28;2043;-79
2022/10/27 00:20:26;;;;;;;;;;;;;;;6.38;78.91;100385.66;5100324;28;3038;-78
2022/10/27 00:22:52;;;;;;;;;;;;;;;6.35;79.15;100378.88;5077890;28;3127;-78
2022/10/27 00:25:19;;;;;;;;;;;;;;;6.36;79.08;100382.38;5094618;28;3149;-78
2022/10/27 00:27:45;;;;;;;;;;;;;;;6.36;79.07;100375.19;5086476;28;2123;-78
2022/10/27 00:30:11;;;;;;;;;;;;;;;6.37;78.81;100376.00;5092429;28;2178;-78
2022/10/27 00:32:37;;;;;;;;;;;;;;;6.37;79.33;100366.13;5084644;28;1836;-79
2022/10/27 00:35:04;;;;;;;;;;;;;;;6.37;79.06;100365.28;5090748;28;2857;-78
2022/10/27 00:37:30;;;;;;;;;;;;;;;6.39;79.31;100354.41;5094318;28;3153;-79
2022/10/27 00:39:56;;;;;;;;;;;;;;;6.37;79.12;100350.06;5095307;28;1300;-78
2022/10/27 00:42:23;;;;;;;;;;;;;;;6.39;78.93;100355.25;5095609;28;2065;-79
2022/10/27 00:44:49;;;;;;;;;;;;;;;6.39;79.17;100336.50;5099564;28;1279;-79
2022/10/27 00:47:15;;;;;;;;;;;;;;;6.40;79.02;100338.16;5107656;28;2085;-80
2022/10/27 00:49:41;;;;;;;;;;;;;;;6.41;79.01;100352.34;5079485;28;1664;-78
2022/10/27 00:52:08;;;;;;;;;;;;;;;6.41;79.23;100341.66;5094944;28;1257;-79
2022/10/27 00:54:34;;;;;;;;;;;;;;;6.41;78.96;100328.28;5105243;28;1968;-77
2022/10/27 00:57:00;;;;;;;;;;;;;;;6.42;79.09;100321.91;5101422;28;2030;-78
2022/10/27 00:59:26;;;;;;;;;;;;;;;6.43;79.34;100318.22;5101807;28;1947;-78
2022/10/27 01:01:53;;;;;;;;;;;;;;;6.42;79.16;100319.25;5072126;28;2458;-78
2022/10/27 01:04:19;;;;;;;;;;;;;;;6.44;79.13;100326.06;5108415;28;1485;-78
2022/10/27 01:06:47;;;;;;;;;;;;;;;6.44;79.14;100318.03;5102892;28;2141;-77
2022/10/27 01:09:16;;;;;;;;;;;;;;;6.45;79.13;100324.19;5089486;28;1250;-78
2022/10/27 01:11:42;;;;;;;;;;;;;;;6.45;79.04;100324.19;5098263;28;1346;-77
2022/10/27 01:14:08;;;;;;;;;;;;;;;6.45;79.29;100317.00;5092047;28;2061;-79
2022/10/27 01:16:34;;;;;;;;;;;;;;;6.46;79.17;100307.09;5100654;28;2074;-75
2022/10/27 01:19:01;;;;;;;;;;;;;;;6.47;79.06;100314.09;5088762;28;1146;-76
2022/10/27 01:21:27;;;;;;;;;;;;;;;6.46;78.79;100315.97;5087638;28;2092;-76
2022/10/27 01:23:53;;;;;;;;;;;;;;;6.47;78.92;100308.75;5086230;28;1580;-75
2022/10/27 01:26:19;;;;;;;;;;;;;;;6.48;79.05;100307.75;5090650;28;2241;-78
2022/10/27 01:28:46;;;;;;;;;;;;;;;6.50;79.00;100297.66;5112347;28;1379;-77
2022/10/27 01:31:13;;;;;;;;;;;;;;;6.51;78.80;100299.31;5110957;28;1164;-76
2022/10/27 01:33:39;;;;;;;;;;;;;;;6.49;79.17;100287.97;5104085;28;1625;-76
2022/10/27 01:36:05;;;;;;;;;;;;;;;6.53;79.22;100291.91;5100273;28;2010;-77
2022/10/27 01:38:31;;;;;;;;;;;;;;;6.51;78.96;100292.13;5101034;28;1736;-77
2022/10/27 01:40:58;;;;;;;;;;;;;;;6.51;79.13;100278.75;5098759;28;1527;-78
2022/10/27 01:43:24;;;;;;;;;;;;;;;6.50;78.83;100271.75;5101124;28;1335;-77
2022/10/27 01:45:50;;;;;;;;;;;;;;;6.52;78.94;100282.22;5090292;28;2212;-78
2022/10/27 01:48:16;;;;;;;;;;;;;;;6.57;78.74;100285.16;5098334;28;1468;-79
2022/10/27 01:50:43;;;;;;;;;;;;;;;6.54;79.21;100281.00;5093007;28;2153;-77
2022/10/27 01:53:09;;;;;;;;;;;;;;;6.54;79.05;100282.88;5098347;28;1103;-78
2022/10/27 01:55:35;;;;;;;;;;;;;;;6.54;78.89;100281.00;5097790;28;1963;-77
2022/10/27 01:58:01;;;;;;;;;;;;;;;6.54;78.97;100277.50;5102945;28;1839;-77
2022/10/27 02:00:28;;;;;;;;;;;;;;;6.55;79.28;100281.81;5097176;28;2347;-78
2022/10/27 02:02:54;;;;;;;;;;;;;;;6.55;78.91;100271.13;5103515;28;1056;-77
2022/10/27 02:05:20;;;;;;;;;;;;;;;6.55;79.13;100279.16;5110265;28;1132;-77
2022/10/27 02:07:47;;;;;;;;;;;;;;;6.56;78.98;100273.63;5102100;28;1056;-77
2022/10/27 02:10:13;;;;;;;;;;;;;;;6.57;79.09;100283.28;5073360;28;1916;-79
2022/10/27 02:12:39;;;;;;;;;;;;;;;6.58;79.34;100287.59;5075216;28;1638;-78
2022/10/27 02:15:06;;;;;;;;;;;;;;;6.58;79.26;100292.94;5059336;28;1931;-79
2022/10/27 02:17:32;;;;;;;;;;;;;;;6.58;79.08;100284.94;5073813;28;1923;-80
2022/10/27 02:19:58;;;;;;;;;;;;;;;6.59;79.39;100280.44;5074414;28;2163;-78
2022/10/27 02:22:24;;;;;;;;;;;;;;;6.58;79.34;100282.25;5055851;28;1658;-79
2022/10/27 02:24:51;;;;;;;;;;;;;;;6.59;79.32;100267.88;5060013;28;1745;-80
2022/10/27 02:27:17;;;;;;;;;;;;;;;6.59;79.43;100267.03;5075214;28;1654;-79
2022/10/27 02:29:43;;;;;;;;;;;;;;;6.59;79.30;100259.03;5071286;28;2104;-79
2022/10/27 02:32:10;;;;;;;;;;;;;;;6.60;79.20;100266.81;5059670;28;1901;-78
2022/10/27 02:34:36;;;;;;;;;;;;;;;6.62;79.42;100265.78;5076924;28;1961;-79
2022/10/27 02:37:02;;;;;;;;;;;;;;;6.61;79.46;100259.63;5068241;28;5454;-79
2022/10/27 02:39:28;;;;;;;;;;;;;;;6.63;79.47;100272.81;5065813;28;1724;-79
2022/10/27 02:41:55;;;;;;;;;;;;;;;6.62;79.53;100266.63;5065454;28;4749;-79
2022/10/27 02:44:21;;;;;;;;;;;;;;;6.63;79.33;100262.94;5059248;28;1830;-79
2022/10/27 02:46:47;;;;;;;;;;;;;;;6.63;79.27;100259.44;5074116;28;2006;-79
2022/10/27 02:49:14;;;;;;;;;;;;;;;6.64;79.37;100258.41;5076218;28;3931;-79
2022/10/27 02:51:40;;;;;;;;;;;;;;;6.65;79.19;100260.88;5073616;28;3661;-79
2022/10/27 02:54:06;;;;;;;;;;;;;;;6.66;79.48;100259.03;5073778;28;2009;-79
2022/10/27 02:56:32;;;;;;;;;;;;;;;6.67;79.46;100274.06;5055696;28;3635;-79
2022/10/27 02:58:59;;;;;;;;;;;;;;;6.67;79.16;100292.78;5076836;28;1723;-78
2022/10/27 03:01:25;;;;;;;;;;;;;;;6.68;79.58;100300.63;5070756;28;1929;-79
2022/10/27 03:03:51;;;;;;;;;;;;;;;6.68;79.53;100300.63;5056176;28;1571;-79
2022/10/27 03:06:17;;;;;;;;;;;;;;;6.68;79.43;100291.78;5072690;28;2855;-79
2022/10/27 03:08:44;;;;;;;;;;;;;;;6.69;79.51;100307.63;5058507;28;2736;-79
2022/10/27 03:11:10;;;;;;;;;;;;;;;6.70;79.56;100319.97;5076014;28;1685;-78
2022/10/27 03:13:36;;;;;;;;;;;;;;;6.71;79.52;100315.47;5056379;28;2036;-78
2022/10/27 03:16:03;;;;;;;;;;;;;;;6.70;79.56;100305.75;5076229;28;1981;-79
2022/10/27 03:18:29;;;;;;;;;;;;;;;6.70;79.11;100301.22;5072729;28;1986;-79
2022/10/27 03:20:55;;;;;;;;;;;;;;;6.72;79.35;100303.72;5057269;28;1501;-79
2022/10/27 03:23:21;;;;;;;;;;;;;;;6.73;79.35;100300.81;5072312;28;1808;-78
2022/10/27 03:25:48;;;;;;;;;;;;;;;6.73;79.36;100306.19;5072944;28;1764;-80
2022/10/27 03:28:14;;;;;;;;;;;;;;;6.74;79.36;100323.91;5075823;28;2160;-77
2022/10/27 03:30:40;;;;;;;;;;;;;;;6.73;79.50;100319.56;5074906;28;1695;-78
2022/10/27 03:33:06;;;;;;;;;;;;;;;6.75;79.33;100330.09;5074080;28;1594;-77
2022/10/27 03:35:33;;;;;;;;;;;;;;;6.76;79.61;100337.09;5056844;28;1922;-79
2022/10/27 03:37:59;;;;;;;;;;;;;;;6.77;79.47;100326.19;5073577;28;1843;-79
2022/10/27 03:40:25;;;;;;;;;;;;;;;6.77;79.41;100322.69;5063575;28;1907;-79
2022/10/27 03:42:56;;;;;;;;;;;;;;;6.77;79.51;100331.53;5051133;28;2067;-79
2022/10/27 03:45:22;;;;;;;;;;;;;;;6.78;79.84;100335.84;5073128;28;1590;-78
2022/10/27 03:47:48;;;;;;;;;;;;;;;6.78;79.81;100343.88;5076414;28;1890;-77
2022/10/27 03:50:15;;;;;;;;;;;;;;;6.79;79.60;100350.06;5072866;28;1697;-78
2022/10/27 03:52:41;;;;;;;;;;;;;;;6.79;79.64;100374.16;5058550;28;1655;-77
2022/10/27 03:55:07;;;;;;;;;;;;;;;6.81;79.63;100367.59;5072842;28;1977;-77
2022/10/27 03:57:33;;;;;;;;;;;;;;;6.81;79.78;100364.91;5059908;28;2337;-81
2022/10/27 04:00:00;;;;;;;;;;;;;;;6.81;79.90;100367.59;5071485;28;1761;-79
2022/10/27 04:02:26;;;;;;;;;;;;;;;6.82;79.94;100365.72;5071228;28;2006;-78
2022/10/27 04:04:52;;;;;;;;;;;;;;;6.82;79.83;100358.53;5055931;28;1646;-80
2022/10/27 04:07:19;;;;;;;;;;;;;;;6.82;79.60;100361.22;5075127;28;1772;-78
2022/10/27 04:09:45;;;;;;;;;;;;;;;6.83;79.87;100359.38;5076192;28;1765;-79
2022/10/27 04:12:11;;;;;;;;;;;;;;;6.84;79.74;100369.03;5072967;28;1620;-77
2022/10/27 04:14:38;;;;;;;;;;;;;;;6.86;79.88;100379.56;5072341;28;1905;-78
2022/10/27 04:17:04;;;;;;;;;;;;;;;6.86;79.70;100392.94;5077044;28;1551;-78
2022/10/27 04:19:30;;;;;;;;;;;;;;;6.86;79.82;100396.44;5052745;28;1627;-78
2022/10/27 04:21:56;;;;;;;;;;;;;;;6.86;79.80;100384.91;5073355;28;2248;-78
2022/10/27 04:24:23;;;;;;;;;;;;;;;6.88;79.97;100380.16;5070419;28;1697;-80
2022/10/27 04:26:49;;;;;;;;;;;;;;;6.87;79.57;100394.59;5054096;28;1580;-77
2022/10/27 04:29:15;;;;;;;;;;;;;;;6.88;79.95;100396.22;5075916;28;1690;-79
2022/10/27 04:31:41;;;;;;;;;;;;;;;6.89;79.84;100411.28;5075378;28;1626;-77
2022/10/27 04:34:08;;;;;;;;;;;;;;;6.91;79.78;100419.94;5074509;28;2250;-77
2022/10/27 04:36:34;;;;;;;;;;;;;;;6.89;79.69;100411.28;5074453;28;2243;-77
2022/10/27 04:39:00;;;;;;;;;;;;;;;6.90;80.03;100415.59;5054186;28;1610;-78
2022/10/27 04:41:27;;;;;;;;;;;;;;;6.90;79.64;100410.25;5074695;28;1661;-77
2022/10/27 04:43:53;;;;;;;;;;;;;;;6.91;79.88;100417.25;5054233;28;1750;-78
2022/10/27 04:46:19;;;;;;;;;;;;;;;6.90;79.91;100405.72;5075846;28;1657;-77
2022/10/27 04:48:45;;;;;;;;;;;;;;;6.91;79.80;100409.22;5070728;28;1919;-79
2022/10/27 04:51:12;;;;;;;;;;;;;;;6.92;79.78;100429.63;5072484;28;1663;-79
2022/10/27 04:53:38;;;;;;;;;;;;;;;6.93;79.96;100440.13;5074034;28;2054;-79
2022/10/27 04:56:04;;;;;;;;;;;;;;;6.94;79.89;100447.16;5054638;28;2009;-78
2022/10/27 04:58:30;;;;;;;;;;;;;;;6.95;79.95;100450.66;5072457;28;1670;-80
2022/10/27 05:00:57;;;;;;;;;;;;;;;6.94;79.29;100447.16;5074366;28;2252;-77
2022/10/27 05:03:24;;;;;;;;;;;;;;;6.95;80.00;100443.44;5070336;28;1575;-79
2022/10/27 05:05:50;;;;;;;;;;;;;;;6.95;79.75;100448.81;5053672;28;4888;-78
2022/10/27 05:08:16;;;;;;;;;;;;;;;6.96;79.65;100452.28;5075382;28;4783;-80
2022/10/27 05:10:43;;;;;;;;;;;;;;;6.95;79.79;100439.94;5056783;28;1581;-78
2022/10/27 05:13:09;;;;;;;;;;;;;;;6.97;79.99;100445.91;5072696;28;5405;-79
2022/10/27 05:15:36;;;;;;;;;;;;;;;6.96;79.98;100439.72;5072120;28;1996;-79
2022/10/27 05:18:02;;;;;;;;;;;;;;;6.97;79.88;100436.03;5074204;28;2276;-79
2022/10/27 05:20:28;;;;;;;;;;;;;;;6.97;79.86;100438.72;5052193;28;3804;-78
2022/10/27 05:22:55;;;;;;;;;;;;;;;6.98;79.60;100442.22;5070826;28;3567;-79
2022/10/27 05:25:21;;;;;;;;;;;;;;;7.00;79.83;100450.88;5072677;28;2606;-78
2022/10/27 05:27:47;;;;;;;;;;;;;;;7.00;79.97;100451.72;5061643;28;2298;-78
2022/10/27 05:30:13;;;;;;;;;;;;;;;7.00;79.85;100448.19;5072960;28;2331;-78
2022/10/27 05:32:40;;;;;;;;;;;;;;;7.01;79.84;100445.31;5066026;28;2760;-79
2022/10/27 05:35:06;;;;;;;;;;;;;;;7.01;79.70;100455.22;5066025;28;1983;-77
2022/10/27 05:37:32;;;;;;;;;;;;;;;7.02;79.78;100463.03;5078643;28;3182;-78
2022/10/27 05:39:59;;;;;;;;;;;;;;;7.02;79.87;100460.34;5078857;28;1924;-78
2022/10/27 05:42:26;;;;;;;;;;;;;;;7.03;79.85;100461.22;5097142;28;1623;-78
2022/10/27 05:44:52;;;;;;;;;;;;;;;7.03;79.94;100467.38;5086746;28;1537;-78
2022/10/27 05:47:18;;;;;;;;;;;;;;;7.04;79.90;100465.53;5072351;28;1634;-78
2022/10/27 05:49:44;;;;;;;;;;;;;;;7.04;79.94;100469.03;5087549;28;1715;-78
2022/10/27 05:52:11;;;;;;;;;;;;;;;7.05;80.30;100467.16;5092248;28;1336;-78
2022/10/27 05:54:37;;;;;;;;;;;;;;;7.05;80.28;100468.00;5096870;28;1191;-79
2022/10/27 05:57:03;;;;;;;;;;;;;;;7.06;80.12;100468.84;5087079;28;1984;-76
2022/10/27 05:59:29;;;;;;;;;;;;;;;7.06;79.87;100466.16;5090603;28;1559;-78
2022/10/27 06:01:56;;;;;;;;;;;;;;;7.07;80.02;100466.97;5066580;28;2186;-79
2022/10/27 06:04:22;;;;;;;;;;;;;;;7.07;80.18;100470.47;5091221;28;1513;-77
2022/10/27 06:06:48;;;;;;;;;;;;;;;7.08;80.26;100473.97;5077250;28;1874;-77
2022/10/27 06:09:14;;;;;;;;;;;;;;;7.09;79.96;100479.16;5080250;28;1789;-77
2022/10/27 06:11:41;;;;;;;;;;;;;;;7.09;80.25;100480.97;5084278;28;3769;-77
2022/10/27 06:14:07;;;;;;;;;;;;;;;7.08;80.27;100474.81;5092724;28;3517;-78
2022/10/27 06:16:33;;;;;;;;;;;;;;;7.10;80.07;100483.47;5076152;28;3789;-77
2022/10/27 06:18:59;;;;;;;;;;;;;;;7.10;80.22;100478.13;5074917;28;1585;-78
2022/10/27 06:21:26;;;;;;;;;;;;;;;7.09;80.15;100470.28;5097244;28;1254;-78
2022/10/27 06:23:52;;;;;;;;;;;;;;;7.11;80.50;100477.09;5100651;28;1614;-79
2022/10/27 06:26:18;;;;;;;;;;;;;;;7.10;80.25;100474.63;5082927;28;1686;-79
2022/10/27 06:28:45;;;;;;;;;;;;;;;7.11;80.14;100484.28;5079812;28;1420;-79
2022/10/27 06:31:11;;;;;;;;;;;;;;;7.12;80.03;100481.44;5075132;28;1482;-80
2022/10/27 06:33:37;;;;;;;;;;;;;;;7.12;80.34;100484.13;5082825;28;3452;-78
2022/10/27 06:36:03;;;;;;;;;;;;;;;7.13;80.36;100491.13;5092642;28;2116;-78
2022/10/27 06:38:30;;;;;;;;;;;;;;;7.14;80.34;100494.63;5082405;28;1346;-78
2022/10/27 06:40:56;;;;;;;;;;;;;;;7.14;79.93;100495.44;5092058;28;1594;-78
2022/10/27 06:43:22;;;;;;;;;;;;;;;7.14;80.21;100494.63;5073395;28;1919;-79
2022/10/27 06:45:48;;;;;;;;;;;;;;;7.15;80.59;100490.94;5086130;28;4848;-79
2022/10/27 06:48:15;;;;;;;;;;;;;;;7.16;80.23;100500.59;5065052;28;4133;-78
2022/10/27 06:50:41;;;;;;;;;;;;;;;7.16;79.98;100497.94;5062203;28;2071;-79
2022/10/27 06:53:07;;;;;;;;;;;;;;;7.16;80.35;100498.75;5085749;28;3905;-78
2022/10/27 06:55:34;;;;;;;;;;;;;;;7.17;80.13;100508.44;5068034;28;2079;-79
2022/10/27 06:58:00;;;;;;;;;;;;;;;7.17;80.31;100500.41;5089784;28;2093;-79
2022/10/27 07:00:26;;;;;;;;;;;;;;;7.18;80.49;100509.28;5089009;28;1978;-79
2022/10/27 07:02:53;;;;;;;;;;;;;;;7.18;80.22;100504.75;5093106;28;2068;-78
2022/10/27 07:05:20;;;;;;;;;;;;;;;7.19;80.58;100505.56;5073194;28;2765;-79
2022/10/27 07:07:47;;;;;;;;;;;;;;;7.19;80.21;100510.94;5081344;28;1740;-78
2022/10/27 07:10:13;;;;;;;;;;;;;;;7.20;80.20;100513.38;5084670;28;1454;-78
2022/10/27 07:12:40;;;;;;;;;;;;;;;7.20;80.22;100518.75;5082948;28;1462;-78
2022/10/27 07:15:06;;;;;;;;;;;;;;;7.20;80.20;100521.41;5075654;28;1739;-78
2022/10/27 07:20:17;;;;;;;;;;;;;;;7.23;80.59;100529.06;5099133;28;1657;-75
2022/10/27 07:40:10;;;;;;;;;;;;;;;7.25;80.30;100569.88;5067275;28;5080;-77
2022/10/27 07:42:38;;;;;;;;;;;;;;;7.26;80.22;100562.66;5077731;28;3033;-77
2022/10/27 07:45:04;;;;;;;;;;;;;;;7.25;80.46;100561.84;5057728;28;3383;-76
2022/10/27 07:47:30;;;;;;;;;;;;;;;7.27;80.70;100575.88;5083844;28;2670;-77
2022/10/27 07:49:56;;;;;;;;;;;;;;;7.27;80.77;100565.16;5089430;28;1604;-77
2022/10/27 07:52:23;;;;;;;;;;;;;;;7.27;80.81;100567.84;5043968;28;2747;-77
2022/10/27 07:54:49;;;;;;;;;;;;;;;7.28;80.48;100576.69;5026164;28;1702;-77
2022/10/27 07:57:15;;;;;;;;;;;;;;;7.28;80.84;100574.03;5034197;28;1899;-79
2022/10/27 07:59:42;;;;;;;;;;;;;;;7.30;80.55;100576.53;5035797;28;1628;-77
2022/10/27 08:02:08;;;;;;;;;;;;;;;7.30;80.91;100571.16;5034836;28;1777;-77
2022/10/27 08:04:34;;;;;;;;;;;;;;;7.30;80.15;100569.31;5018001;28;1601;-76
2022/10/27 08:07:00;;;;;;;;;;;;;;;7.30;80.38;100576.53;5032985;28;2835;-79
2022/10/27 08:09:27;;;;;;;;;;;;;;;7.30;80.34;100574.66;5033580;28;1623;-76
2022/10/27 08:11:53;;;;;;;;;;;;;;;7.31;80.76;100580.84;5032170;28;1674;-76
2022/10/27 08:14:19;;;;;;;;;;;;;;;7.32;80.54;100579.81;5036956;28;1599;-79
2022/10/27 08:16:46;;;;;;;;;;;;;;;7.31;80.82;100587.03;5031606;28;1980;-77
2022/10/27 08:19:12;;;;;;;;;;;;;;;7.39;83.00;100586.06;5013889;28;2708;-73
2022/10/27 08:21:40;;;;;;;;;;;;;;;7.54;81.26;100596.63;5027822;28;4976;-79
2022/10/27 08:24:09;;;;;;;;;;;;;;;7.45;81.14;100594.13;5027056;28;5121;-76
2022/10/27 08:26:35;;;;;;;;;;;;;;;7.41;81.56;100595.56;5036886;28;3231;-76
2022/10/27 08:29:01;;;;;;;;;;;;;;;7.40;81.73;100596.56;5043413;28;2098;-76
2022/10/27 08:31:28;;;;;;;;;;;;;;;7.40;81.63;100601.91;5043691;28;2105;-77
2022/10/27 08:33:55;;;;;;;;;;;;;;;7.39;81.34;100611.00;5027413;28;5805;-76
2022/10/27 08:36:21;;;;;;;;;;;;;;;7.39;81.55;100610.16;5014897;28;5459;-76
2022/10/27 08:38:47;;;;;;;;;;;;;;;7.39;81.49;100613.66;5048186;28;5417;-77
2022/10/27 08:41:14;;;;;;;;;;;;;;;7.39;81.55;100616.34;5064652;28;5311;-77
2022/10/27 08:43:40;;;;;;;;;;;;;;;7.40;81.34;100617.16;5063727;28;1566;-77
2022/10/27 08:46:06;;;;;;;;;;;;;;;7.39;81.83;100613.66;5063765;28;1566;-76
2022/10/27 08:48:33;;;;;;;;;;;;;;;7.41;81.60;100618.81;5044914;28;1568;-77
2022/10/27 08:50:59;;;;;;;;;;;;;;;7.40;81.48;100615.31;5044526;28;3261;-76
2022/10/27 08:53:26;;;;;;;;;;;;;;;7.41;81.44;100614.31;5056070;28;4605;-77
2022/10/27 09:01:14;;;;;;;;;;;;;;;7.42;81.53;100628.53;5019577;28;5061;-76
2022/10/27 09:03:41;;;;;;;;;;;;;;;7.43;81.38;100617.59;5019545;28;5205;-76
2022/10/27 09:06:07;;;;;;;;;;;;;;;7.43;81.51;100620.28;5026849;28;2219;-76
2022/10/27 09:08:33;;;;;;;;;;;;;;;7.43;81.65;100620.28;5028136;28;2143;-76
2022/10/27 09:11:00;;;;;;;;;;;;;;;7.44;81.49;100632.66;5029900;28;2012;-78
2022/10/27 09:13:26;;;;;;;;;;;;;;;7.45;81.26;100637.00;5028363;28;2099;-77
2022/10/27 09:15:53;;;;;;;;;;;;;;;7.45;81.18;100637.00;5027607;28;2279;-76
2022/10/27 09:18:20;;;;;;;;;;;;;;;7.45;81.37;100626.28;5018299;28;5478;-77
2022/10/27 09:20:46;;;;;;;;;;;;;;;7.45;81.15;100625.44;5025986;28;1852;-78
2022/10/27 09:23:12;;;;;;;;;;;;;;;7.46;81.43;100627.09;5022097;28;1962;-78
2022/10/27 09:25:38;;;;;;;;;;;;;;;7.46;81.48;100617.19;5027177;28;1936;-78
2022/10/27 09:28:05;;;;;;;;;;;;;;;7.46;81.37;100622.56;5028552;28;1845;-78
2022/10/27 09:30:31;;;;;;;;;;;;;;;7.47;81.50;100628.75;5020759;28;2073;-78
2022/10/27 09:32:57;;;;;;;;;;;;;;;7.46;81.25;100630.59;5026105;28;2111;-78
2022/10/27 09:35:24;;;;;;;;;;;;;;;7.46;81.11;100633.28;5027862;28;2268;-79
2022/10/27 09:37:50;;;;;;;;;;;;;;;7.48;81.10;100622.38;5026710;28;1910;-78
2022/10/27 09:40:16;;;;;;;;;;;;;;;7.49;81.30;100624.03;5021224;28;1983;-78
2022/10/27 09:42:42;;;;;;;;;;;;;;;7.49;81.19;100629.38;5016098;28;2035;-78
2022/10/27 09:45:09;;;;;;;;;;;;;;;7.49;81.23;100630.19;5017783;28;1897;-78
2022/10/27 09:47:35;;;;;;;;;;;;;;;7.50;81.18;100636.41;5018839;28;1941;-78
2022/10/27 09:50:01;;;;;;;;;;;;;;;7.50;81.37;100644.47;5023171;28;1646;-78
2022/10/27 09:52:28;;;;;;;;;;;;;;;7.50;81.10;100647.13;5021946;28;2108;-78
2022/10/27 09:54:54;;;;;;;;;;;;;;;7.50;81.20;100652.50;5024697;28;1951;-78
2022/10/27 09:57:22;;;;;;;;;;;;;;;7.51;81.25;100654.13;5037145;28;1941;-78
2022/10/27 09:59:48;;;;;;;;;;;;;;;7.51;81.15;100657.66;5029983;28;1969;-78
2022/10/27 10:02:14;;;;;;;;;;;;;;;7.51;81.12;100652.28;5034966;28;1672;-78
2022/10/27 10:04:40;;;;;;;;;;;;;;;7.51;81.39;100652.28;5029260;28;2521;-78
2022/10/27 10:07:07;;;;;;;;;;;;;;;7.51;81.28;100654.13;5041184;28;1861;-78
2022/10/27 10:09:33;;;;;;;;;;;;;;;7.52;81.51;100661.16;5046215;28;2138;-78
2022/10/27 10:11:59;;;;;;;;;;;;;;;7.53;80.95;100657.47;5045930;28;1593;-78
2022/10/27 10:14:26;;;;;;;;;;;;;;;7.53;81.14;100652.09;5048113;28;1867;-79
2022/10/27 10:16:54;;;;;;;;;;;;;;;7.53;81.45;100646.75;5031900;28;1992;-78
2022/10/27 10:19:20;;;;;;;;;;;;;;;7.55;80.92;100654.56;5026742;28;2101;-78
2022/10/27 10:21:46;;;;;;;;;;;;;;;7.54;80.81;100659.09;5022648;28;1659;-78
2022/10/27 10:24:13;;;;;;;;;;;;;;;7.55;80.88;100652.72;5023974;28;1883;-78
2022/10/27 10:26:39;;;;;;;;;;;;;;;7.55;81.20;100654.56;5023117;28;1921;-78
2022/10/27 10:29:05;;;;;;;;;;;;;;;7.56;80.84;100653.53;5022993;28;3510;-78
2022/10/27 10:31:32;;;;;;;;;;;;;;;7.56;81.08;100651.72;5044548;28;1709;-78
2022/10/27 10:33:58;;;;;;;;;;;;;;;7.56;80.99;100651.72;5046111;28;1594;-78
2022/10/27 10:36:24;;;;;;;;;;;;;;;7.57;80.99;100644.47;5028724;28;2024;-78
2022/10/27 10:38:51;;;;;;;;;;;;;;;7.59;81.22;100661.19;5043417;28;3714;-78
2022/10/27 10:41:19;;;;;;;;;;;;;;;7.58;80.99;100664.91;5049877;28;1804;-78
2022/10/27 10:43:45;;;;;;;;;;;;;;;7.58;81.34;100673.75;5051663;28;2087;-79
2022/10/27 10:46:11;;;;;;;;;;;;;;;7.59;81.21;100672.75;5011900;28;5276;-78
2022/10/27 10:48:39;;;;;;;;;;;;;;;7.59;81.03;100672.75;5038549;28;2462;-78
2022/10/27 10:51:05;;;;;;;;;;;;;;;7.60;80.73;100681.63;5014781;28;5612;-78
2022/10/27 10:53:31;;;;;;;;;;;;;;;7.60;81.30;100671.72;5026803;28;4486;-78
2022/10/27 10:55:57;;;;;;;;;;;;;;;7.61;81.01;100675.22;5027964;28;1896;-78
2022/10/27 10:58:24;;;;;;;;;;;;;;;7.61;80.83;100675.22;5049246;28;4618;-78
2022/10/27 11:00:50;;;;;;;;;;;;;;;7.62;80.85;100682.25;5049560;28;1681;-78
2022/10/27 11:03:16;;;;;;;;;;;;;;;7.61;81.36;100670.69;5047570;28;1556;-78
2022/10/27 11:05:43;;;;;;;;;;;;;;;7.62;81.18;100677.72;5027255;28;1609;-78
2022/10/27 11:08:09;;;;;;;;;;;;;;;7.62;80.68;100674.22;5030846;28;2000;-78
2022/10/27 11:10:35;;;;;;;;;;;;;;;7.62;80.76;100672.34;5023783;28;5346;-78
2022/10/27 11:13:02;;;;;;;;;;;;;;;7.63;81.15;100670.50;5045349;28;1760;-78
2022/10/27 11:15:28;;;;;;;;;;;;;;;7.63;80.62;100671.31;5032351;28;1616;-79
2022/10/27 11:17:54;;;;;;;;;;;;;;;7.64;80.78;100675.66;5041989;28;1989;-78
2022/10/27 11:20:20;;;;;;;;;;;;;;;7.65;81.02;100671.13;5037415;28;2013;-78
2022/10/27 11:22:47;;;;;;;;;;;;;;;7.65;81.18;100676.50;5040770;28;2052;-78
2022/10/27 11:25:13;;;;;;;;;;;;;;;7.67;81.04;100677.09;5018698;28;1867;-78
2022/10/27 11:27:39;;;;;;;;;;;;;;;7.66;81.08;100672.78;5021613;28;1970;-78
2022/10/27 11:30:06;;;;;;;;;;;;;;;7.66;80.86;100667.41;5016840;28;1569;-78
2022/10/27 11:32:32;;;;;;;;;;;;;;;7.67;81.16;100664.53;5009482;28;5116;-78
2022/10/27 11:34:59;;;;;;;;;;;;;;;7.68;81.08;100660.03;5038425;28;1543;-78
2022/10/27 11:37:25;;;;;;;;;;;;;;;7.68;81.01;100666.19;5038301;28;2016;-78
2022/10/27 11:39:51;;;;;;;;;;;;;;;7.69;81.02;100669.72;5037134;28;1602;-78
2022/10/27 11:42:18;;;;;;;;;;;;;;;7.69;81.17;100667.84;5041151;28;1836;-78
2022/10/27 11:44:44;;;;;;;;;;;;;;;7.69;80.94;100661.66;5025459;28;1673;-78
2022/10/27 11:47:10;;;;;;;;;;;;;;;7.71;80.72;100664.97;5021931;28;1630;-78
2022/10/27 11:49:36;;;;;;;;;;;;;;;7.72;80.68;100658.59;5034991;28;1992;-78
2022/10/27 11:52:03;;;;;;;;;;;;;;;7.71;81.02;100654.25;5038836;28;1777;-78
2022/10/27 11:54:29;;;;;;;;;;;;;;;7.72;80.82;100653.22;5020797;28;1704;-78
2022/10/27 11:56:56;;;;;;;;;;;;;;;7.73;80.99;100666.44;5019965;28;1910;-78
2022/10/27 11:59:22;;;;;;;;;;;;;;;7.73;81.19;100661.09;5013839;28;1652;-78
2022/10/27 12:01:48;;;;;;;;;;;;;;;7.74;80.93;100662.72;5017061;28;1837;-77
2022/10/27 12:04:14;;;;;;;;;;;;;;;7.75;80.90;100663.56;5012600;28;4638;-78
2022/10/27 12:06:41;;;;;;;;;;;;;;;7.77;81.06;100663.38;4995884;28;5116;-77
2022/10/27 12:09:07;;;;;;;;;;;;;;;7.78;80.76;100665.00;5014964;28;1604;-78
2022/10/27 12:11:33;;;;;;;;;;;;;;;7.77;81.08;100658.81;4996172;28;4900;-78
2022/10/27 12:14:00;;;;;;;;;;;;;;;7.78;81.03;100652.44;4994751;28;2032;-78
2022/10/27 12:16:29;;;;;;;;;;;;;;;7.79;80.69;100650.56;5017481;28;1679;-78
2022/10/27 12:18:55;;;;;;;;;;;;;;;7.79;81.02;100659.44;4999030;28;1918;-78
2022/10/27 12:21:21;;;;;;;;;;;;;;;7.80;80.69;100661.09;4995415;28;1595;-78
2022/10/27 12:23:48;;;;;;;;;;;;;;;7.82;81.16;100674.31;5014911;28;4830;-78
2022/10/27 12:26:14;;;;;;;;;;;;;;;7.83;80.75;100667.94;4997576;28;5553;-78
2022/10/27 12:28:41;;;;;;;;;;;;;;;7.83;81.18;100667.94;5016312;28;4745;-78
2022/10/27 12:31:07;;;;;;;;;;;;;;;7.83;81.19;100660.72;5021694;28;1711;-77
2022/10/27 12:33:34;;;;;;;;;;;;;;;7.84;81.07;100659.66;5013900;28;4293;-78
2022/10/27 12:36:00;;;;;;;;;;;;;;;7.85;81.10;100665.84;5022854;28;2717;-78
2022/10/27 12:38:28;;;;;;;;;;;;;;;7.86;81.04;100675.56;5019237;28;2877;-78
2022/10/27 12:40:54;;;;;;;;;;;;;;;7.86;81.21;100670.22;5305727;23;2624;-78
2022/10/27 12:43:21;;;;;;;;;;;;;;;7.88;81.23;100671.69;5005761;28;1962;-78
2022/10/27 12:45:47;;;;;;;;;;;;;;;7.89;81.16;100664.44;5022667;28;2198;-78
2022/10/27 12:48:13;;;;;;;;;;;;;;;7.89;80.92;100662.59;5026072;28;1877;-78
2022/10/27 12:50:39;;;;;;;;;;;;;;;7.90;80.99;100658.06;5025889;28;2149;-78
2022/10/27 12:53:08;;;;;;;;;;;;;;;7.91;80.98;100654.34;5002773;28;2333;-78
2022/10/27 12:55:34;;;;;;;;;;;;;;;7.91;80.92;100647.13;5024398;28;2562;-78
2022/10/27 12:58:00;;;;;;;;;;;;;;;7.92;81.02;100647.97;5006027;28;2775;-78
2022/10/27 13:00:27;;;;;;;;;;;;;;;7.93;80.95;100644.25;5022586;28;2058;-78
2022/10/27 13:02:54;;;;;;;;;;;;;;;7.93;81.33;100650.44;5041903;28;1654;-78
2022/10/27 13:05:20;;;;;;;;;;;;;;;7.95;81.13;100655.59;5025182;28;1877;-78
2022/10/27 13:07:48;;;;;;;;;;;;;;;7.96;81.23;100657.25;5031554;28;1512;-78
2022/10/27 13:10:14;;;;;;;;;;;;;;;7.96;80.90;100649.19;5006865;28;2957;-78
2022/10/27 13:12:40;;;;;;;;;;;;;;;7.97;80.90;100651.69;5022101;28;4443;-78
2022/10/27 13:15:07;;;;;;;;;;;;;;;7.99;81.04;100646.13;5014004;28;1787;-78
2022/10/27 13:17:33;;;;;;;;;;;;;;;7.99;81.40;100643.44;5011266;28;1902;-77